Frankfort, ME

3:56 AM EST on March 01, 2015 (GMT -0500)
Mosquito Mountain | Change Station
CLOSE
Current Station
Personal Weather Station
Location: Frankfort, ME
Elevation: 204 ft
Nearby Weather Stations

Elev 204 ft 44.59 °N, 68.87 °W | Updated 4 minutes ago

Clear
Clear
2.3 °F
Feels Like 2 °F
N
0.0
Wind Variable Wind from SSW

Today
High -- | Low -- °F
--% Chance of Precip.
Yesterday
High -- | Low -- °F
Precip. -- in
6:13 AM 5:23 PM
Waxing Gibbous, 83% visible
Pressure 30.69 in
Visibility 10.0 miles
Clouds Clear
Windchill 2 °F
Dew Point 0 °F
Humidity 92%
Rainfall 0.00 in
Snow Depth Not available.
UV 0 out of 12
Pollen .10 out of 12
Air Quality Not available.
Flu Activity Not available.
METAR KBGR 010853Z 00000KT 10SM CLR M25/M27 A3067 RMK AO2 SLP391 I3000 T12501267 53002

More Conditions Fewer Conditions

Pressure 30.69 in
Visibility 10.0 miles
Clouds Clear
Windchill 2 °F
Dew Point 0 °F
Humidity 92%
Rainfall 0.00 in
Snow Depth Not available.
UV 0 out of 12
Pollen .10 out of 12
Air Quality Not available.
Flu Activity Not available.
METAR KBGR 010853Z 00000KT 10SM CLR M25/M27 A3067 RMK AO2 SLP391 I3000 T12501267 53002

More Conditions Fewer Conditions

10-Day Weather Forecast

Almanac

Astronomy

Mar. 01, 2015 Rise Set
Actual Time
Civil Twilight
Nautical Twilight
Astronomical Twilight
Moon
Length of Visible Light
Length of Day
Tomorrow will be .
, % of the Moon is Illuminated

Today's Extremes

State Highs State Lows

Community

WunderPhotos

Upload Photos

1,801,350 photos uploaded!

WunderBlogs® & News

Nearby

Air Quality

  Air Quality AQ Index Pollutant
Not available.

Snow Depth

Station Depth Elevation

Earthquake Activity

City Distance Mag. Time & Date
Minimum magnitude displayed is 2.5.

Coastal Water Temperatures

Place Temperature

Nearby Weather Stations